sensor_id;sensor_type;location;lat;lon;timestamp;P1;durP1;ratioP1;P2;durP2;ratioP2
8171;SDS011;4127;47.908;10.850;2023-01-28T00:01:13;18.67;;;13.83;;
8171;SDS011;4127;47.908;10.850;2023-01-28T00:03:41;21.93;;;15.57;;
8171;SDS011;4127;47.908;10.850;2023-01-28T00:06:11;19.57;;;13.23;;
8171;SDS011;4127;47.908;10.850;2023-01-28T00:08:40;14.13;;;11.77;;
8171;SDS011;4127;47.908;10.850;2023-01-28T00:11:07;17.23;;;12.60;;
8171;SDS011;4127;47.908;10.850;2023-01-28T00:13:38;14.77;;;11.37;;
8171;SDS011;4127;47.908;10.850;2023-01-28T00:16:06;17.30;;;12.63;;
8171;SDS011;4127;47.908;10.850;2023-01-28T00:18:34;14.17;;;11.53;;
8171;SDS011;4127;47.908;10.850;2023-01-28T00:21:04;15.53;;;11.57;;
8171;SDS011;4127;47.908;10.850;2023-01-28T00:23:33;16.57;;;12.47;;
8171;SDS011;4127;47.908;10.850;2023-01-28T00:26:06;15.37;;;12.10;;
8171;SDS011;4127;47.908;10.850;2023-01-28T00:28:42;14.97;;;11.33;;
8171;SDS011;4127;47.908;10.850;2023-01-28T00:33:47;15.73;;;10.93;;
8171;SDS011;4127;47.908;10.850;2023-01-28T00:36:18;15.27;;;11.30;;
8171;SDS011;4127;47.908;10.850;2023-01-28T00:38:52;16.40;;;11.50;;
8171;SDS011;4127;47.908;10.850;2023-01-28T00:41:21;15.17;;;11.03;;
8171;SDS011;4127;47.908;10.850;2023-01-28T00:43:50;15.70;;;11.60;;
8171;SDS011;4127;47.908;10.850;2023-01-28T00:46:17;16.53;;;11.90;;
8171;SDS011;4127;47.908;10.850;2023-01-28T00:51:34;14.50;;;11.97;;
8171;SDS011;4127;47.908;10.850;2023-01-28T00:54:01;15.80;;;11.67;;
8171;SDS011;4127;47.908;10.850;2023-01-28T00:56:28;13.80;;;10.53;;
8171;SDS011;4127;47.908;10.850;2023-01-28T00:58:55;17.03;;;11.43;;
8171;SDS011;4127;47.908;10.850;2023-01-28T01:01:22;16.60;;;12.17;;
8171;SDS011;4127;47.908;10.850;2023-01-28T01:03:58;17.37;;;12.37;;
8171;SDS011;4127;47.908;10.850;2023-01-28T01:06:33;15.50;;;11.63;;
8171;SDS011;4127;47.908;10.850;2023-01-28T01:09:02;14.20;;;11.57;;
8171;SDS011;4127;47.908;10.850;2023-01-28T01:11:33;16.83;;;12.37;;
8171;SDS011;4127;47.908;10.850;2023-01-28T01:14:00;16.23;;;12.70;;
8171;SDS011;4127;47.908;10.850;2023-01-28T01:16:30;13.43;;;10.57;;
8171;SDS011;4127;47.908;10.850;2023-01-28T01:18:58;15.00;;;11.83;;
8171;SDS011;4127;47.908;10.850;2023-01-28T01:21:26;14.97;;;12.03;;
8171;SDS011;4127;47.908;10.850;2023-01-28T01:23:54;15.00;;;11.57;;
8171;SDS011;4127;47.908;10.850;2023-01-28T01:26:21;15.20;;;11.90;;
8171;SDS011;4127;47.908;10.850;2023-01-28T01:28:49;15.63;;;11.90;;
8171;SDS011;4127;47.908;10.850;2023-01-28T01:31:18;13.57;;;11.43;;
8171;SDS011;4127;47.908;10.850;2023-01-28T01:33:46;13.97;;;10.77;;
8171;SDS011;4127;47.908;10.850;2023-01-28T01:36:15;13.00;;;10.13;;
8171;SDS011;4127;47.908;10.850;2023-01-28T01:38:44;14.97;;;11.27;;
8171;SDS011;4127;47.908;10.850;2023-01-28T01:41:28;13.53;;;10.97;;
8171;SDS011;4127;47.908;10.850;2023-01-28T01:43:58;15.33;;;11.97;;
8171;SDS011;4127;47.908;10.850;2023-01-28T01:46:36;14.70;;;12.17;;
8171;SDS011;4127;47.908;10.850;2023-01-28T01:49:24;14.83;;;11.87;;
8171;SDS011;4127;47.908;10.850;2023-01-28T01:51:55;14.53;;;11.07;;
8171;SDS011;4127;47.908;10.850;2023-01-28T01:54:28;16.87;;;13.50;;
8171;SDS011;4127;47.908;10.850;2023-01-28T01:56:58;14.77;;;11.50;;
8171;SDS011;4127;47.908;10.850;2023-01-28T01:59:29;15.70;;;12.93;;
8171;SDS011;4127;47.908;10.850;2023-01-28T02:02:02;17.63;;;13.17;;
8171;SDS011;4127;47.908;10.850;2023-01-28T02:04:31;15.83;;;13.03;;
8171;SDS011;4127;47.908;10.850;2023-01-28T02:07:01;17.23;;;13.23;;
8171;SDS011;4127;47.908;10.850;2023-01-28T02:09:31;17.43;;;13.47;;
8171;SDS011;4127;47.908;10.850;2023-01-28T02:12:06;16.47;;;12.07;;
8171;SDS011;4127;47.908;10.850;2023-01-28T02:14:38;15.73;;;11.73;;
8171;SDS011;4127;47.908;10.850;2023-01-28T02:17:11;17.40;;;13.67;;
8171;SDS011;4127;47.908;10.850;2023-01-28T02:19:44;18.10;;;13.87;;
8171;SDS011;4127;47.908;10.850;2023-01-28T02:28:39;18.83;;;15.60;;
8171;SDS011;4127;47.908;10.850;2023-01-28T02:31:13;19.80;;;14.90;;
8171;SDS011;4127;47.908;10.850;2023-01-28T02:33:49;19.13;;;14.97;;
8171;SDS011;4127;47.908;10.850;2023-01-28T02:36:23;20.57;;;15.37;;
8171;SDS011;4127;47.908;10.850;2023-01-28T02:39:08;20.30;;;15.50;;
8171;SDS011;4127;47.908;10.850;2023-01-28T02:42:01;20.23;;;15.20;;
8171;SDS011;4127;47.908;10.850;2023-01-28T02:44:32;19.30;;;15.03;;
8171;SDS011;4127;47.908;10.850;2023-01-28T02:46:59;18.60;;;14.67;;
8171;SDS011;4127;47.908;10.850;2023-01-28T02:49:51;21.37;;;16.67;;
8171;SDS011;4127;47.908;10.850;2023-01-28T02:52:31;20.83;;;15.20;;
8171;SDS011;4127;47.908;10.850;2023-01-28T02:55:25;20.50;;;15.07;;
8171;SDS011;4127;47.908;10.850;2023-01-28T02:58:09;21.70;;;15.67;;
8171;SDS011;4127;47.908;10.850;2023-01-28T03:00:51;21.63;;;16.47;;
8171;SDS011;4127;47.908;10.850;2023-01-28T03:03:44;21.37;;;15.50;;
8171;SDS011;4127;47.908;10.850;2023-01-28T03:06:23;20.17;;;15.77;;
8171;SDS011;4127;47.908;10.850;2023-01-28T03:08:56;22.10;;;16.10;;
8171;SDS011;4127;47.908;10.850;2023-01-28T03:11:47;24.97;;;17.80;;
8171;SDS011;4127;47.908;10.850;2023-01-28T03:14:44;21.80;;;16.20;;
8171;SDS011;4127;47.908;10.850;2023-01-28T03:26:47;28.50;;;19.27;;
8171;SDS011;4127;47.908;10.850;2023-01-28T03:29:41;28.33;;;18.20;;
8171;SDS011;4127;47.908;10.850;2023-01-28T03:32:28;28.30;;;19.23;;
8171;SDS011;4127;47.908;10.850;2023-01-28T03:35:15;25.67;;;18.00;;
8171;SDS011;4127;47.908;10.850;2023-01-28T03:38:05;26.33;;;18.07;;
8171;SDS011;4127;47.908;10.850;2023-01-28T03:43:15;27.47;;;19.17;;
8171;SDS011;4127;47.908;10.850;2023-01-28T03:45:42;27.07;;;19.30;;
8171;SDS011;4127;47.908;10.850;2023-01-28T03:48:11;27.00;;;18.67;;
8171;SDS011;4127;47.908;10.850;2023-01-28T03:50:40;24.80;;;18.33;;
8171;SDS011;4127;47.908;10.850;2023-01-28T03:53:07;26.27;;;18.40;;
8171;SDS011;4127;47.908;10.850;2023-01-28T03:55:42;25.77;;;18.77;;
8171;SDS011;4127;47.908;10.850;2023-01-28T04:00:35;25.17;;;17.50;;
8171;SDS011;4127;47.908;10.850;2023-01-28T04:03:17;28.53;;;19.03;;
8171;SDS011;4127;47.908;10.850;2023-01-28T04:05:58;25.77;;;18.87;;
8171;SDS011;4127;47.908;10.850;2023-01-28T04:08:27;27.03;;;17.97;;
8171;SDS011;4127;47.908;10.850;2023-01-28T04:10:54;26.90;;;18.73;;
8171;SDS011;4127;47.908;10.850;2023-01-28T04:13:21;26.53;;;17.90;;
8171;SDS011;4127;47.908;10.850;2023-01-28T04:15:48;26.00;;;18.67;;
8171;SDS011;4127;47.908;10.850;2023-01-28T04:18:15;29.37;;;20.83;;
8171;SDS011;4127;47.908;10.850;2023-01-28T04:20:41;24.67;;;18.33;;
8171;SDS011;4127;47.908;10.850;2023-01-28T04:23:08;26.77;;;18.50;;
8171;SDS011;4127;47.908;10.850;2023-01-28T04:25:35;29.73;;;20.50;;
8171;SDS011;4127;47.908;10.850;2023-01-28T04:28:02;28.57;;;19.43;;
8171;SDS011;4127;47.908;10.850;2023-01-28T04:30:28;25.63;;;18.93;;
8171;SDS011;4127;47.908;10.850;2023-01-28T04:32:56;25.47;;;16.70;;
8171;SDS011;4127;47.908;10.850;2023-01-28T04:35:23;26.93;;;18.47;;
8171;SDS011;4127;47.908;10.850;2023-01-28T04:37:50;24.13;;;17.07;;
8171;SDS011;4127;47.908;10.850;2023-01-28T04:40:16;23.63;;;17.10;;
8171;SDS011;4127;47.908;10.850;2023-01-28T04:42:51;22.37;;;16.87;;
8171;SDS011;4127;47.908;10.850;2023-01-28T04:45:19;23.77;;;17.17;;
8171;SDS011;4127;47.908;10.850;2023-01-28T04:47:46;24.70;;;17.77;;
8171;SDS011;4127;47.908;10.850;2023-01-28T04:50:13;21.83;;;16.50;;
8171;SDS011;4127;47.908;10.850;2023-01-28T04:52:40;25.47;;;17.90;;
8171;SDS011;4127;47.908;10.850;2023-01-28T04:55:08;22.40;;;16.77;;
8171;SDS011;4127;47.908;10.850;2023-01-28T04:57:35;24.40;;;18.20;;
8171;SDS011;4127;47.908;10.850;2023-01-28T05:00:02;25.27;;;17.57;;
8171;SDS011;4127;47.908;10.850;2023-01-28T05:02:30;22.87;;;16.83;;
8171;SDS011;4127;47.908;10.850;2023-01-28T05:04:57;28.07;;;18.93;;
8171;SDS011;4127;47.908;10.850;2023-01-28T05:07:24;23.67;;;16.47;;
8171;SDS011;4127;47.908;10.850;2023-01-28T05:09:51;22.07;;;15.90;;
8171;SDS011;4127;47.908;10.850;2023-01-28T05:12:17;24.77;;;17.03;;
8171;SDS011;4127;47.908;10.850;2023-01-28T05:14:45;24.13;;;16.83;;
8171;SDS011;4127;47.908;10.850;2023-01-28T05:17:12;22.47;;;16.00;;
8171;SDS011;4127;47.908;10.850;2023-01-28T05:19:39;22.20;;;15.93;;
8171;SDS011;4127;47.908;10.850;2023-01-28T05:22:06;22.97;;;15.33;;
8171;SDS011;4127;47.908;10.850;2023-01-28T05:24:32;19.73;;;14.97;;
8171;SDS011;4127;47.908;10.850;2023-01-28T05:26:59;21.03;;;15.60;;
8171;SDS011;4127;47.908;10.850;2023-01-28T05:29:26;23.70;;;15.80;;
8171;SDS011;4127;47.908;10.850;2023-01-28T05:31:52;20.20;;;15.60;;
8171;SDS011;4127;47.908;10.850;2023-01-28T05:34:19;21.60;;;15.80;;
8171;SDS011;4127;47.908;10.850;2023-01-28T05:36:46;20.37;;;15.20;;
8171;SDS011;4127;47.908;10.850;2023-01-28T05:39:13;21.17;;;15.37;;
8171;SDS011;4127;47.908;10.850;2023-01-28T05:41:39;17.93;;;13.67;;
8171;SDS011;4127;47.908;10.850;2023-01-28T05:44:06;20.50;;;14.27;;
8171;SDS011;4127;47.908;10.850;2023-01-28T05:46:33;18.40;;;13.63;;
8171;SDS011;4127;47.908;10.850;2023-01-28T05:49:00;19.40;;;13.83;;
8171;SDS011;4127;47.908;10.850;2023-01-28T05:51:26;20.37;;;14.77;;
8171;SDS011;4127;47.908;10.850;2023-01-28T05:53:53;22.90;;;15.73;;
8171;SDS011;4127;47.908;10.850;2023-01-28T05:56:20;19.33;;;14.10;;
8171;SDS011;4127;47.908;10.850;2023-01-28T05:58:46;19.27;;;13.60;;
8171;SDS011;4127;47.908;10.850;2023-01-28T06:01:13;21.73;;;15.93;;
8171;SDS011;4127;47.908;10.850;2023-01-28T06:03:40;20.87;;;14.87;;
8171;SDS011;4127;47.908;10.850;2023-01-28T06:06:06;19.33;;;15.70;;
8171;SDS011;4127;47.908;10.850;2023-01-28T06:08:33;19.93;;;16.03;;
8171;SDS011;4127;47.908;10.850;2023-01-28T06:11:00;23.80;;;16.30;;
8171;SDS011;4127;47.908;10.850;2023-01-28T06:13:26;24.47;;;17.50;;
8171;SDS011;4127;47.908;10.850;2023-01-28T06:15:53;28.23;;;19.87;;
8171;SDS011;4127;47.908;10.850;2023-01-28T06:18:20;26.60;;;17.50;;
8171;SDS011;4127;47.908;10.850;2023-01-28T06:20:48;24.40;;;17.50;;
8171;SDS011;4127;47.908;10.850;2023-01-28T06:23:15;23.37;;;17.07;;
8171;SDS011;4127;47.908;10.850;2023-01-28T06:25:42;25.70;;;17.77;;
8171;SDS011;4127;47.908;10.850;2023-01-28T06:28:08;27.37;;;19.43;;
8171;SDS011;4127;47.908;10.850;2023-01-28T06:30:35;25.03;;;17.80;;
8171;SDS011;4127;47.908;10.850;2023-01-28T06:33:02;21.57;;;15.90;;
8171;SDS011;4127;47.908;10.850;2023-01-28T06:35:29;22.03;;;16.57;;
8171;SDS011;4127;47.908;10.850;2023-01-28T06:37:55;25.90;;;18.33;;
8171;SDS011;4127;47.908;10.850;2023-01-28T06:40:22;26.97;;;17.47;;
8171;SDS011;4127;47.908;10.850;2023-01-28T06:42:50;23.47;;;16.37;;
8171;SDS011;4127;47.908;10.850;2023-01-28T06:45:16;25.00;;;17.20;;
8171;SDS011;4127;47.908;10.850;2023-01-28T06:47:44;24.77;;;17.00;;
8171;SDS011;4127;47.908;10.850;2023-01-28T06:50:10;26.93;;;18.37;;
8171;SDS011;4127;47.908;10.850;2023-01-28T06:55:17;23.77;;;16.47;;
8171;SDS011;4127;47.908;10.850;2023-01-28T06:57:44;21.90;;;16.23;;
8171;SDS011;4127;47.908;10.850;2023-01-28T07:00:11;23.47;;;16.93;;
8171;SDS011;4127;47.908;10.850;2023-01-28T07:02:41;26.93;;;17.80;;
8171;SDS011;4127;47.908;10.850;2023-01-28T07:05:08;26.63;;;18.17;;
8171;SDS011;4127;47.908;10.850;2023-01-28T07:07:35;24.27;;;17.03;;
8171;SDS011;4127;47.908;10.850;2023-01-28T07:10:02;27.37;;;18.40;;
8171;SDS011;4127;47.908;10.850;2023-01-28T07:12:29;25.97;;;17.77;;
8171;SDS011;4127;47.908;10.850;2023-01-28T07:14:56;25.47;;;18.57;;
8171;SDS011;4127;47.908;10.850;2023-01-28T07:28:34;25.20;;;17.20;;
8171;SDS011;4127;47.908;10.850;2023-01-28T07:31:01;25.10;;;17.90;;
8171;SDS011;4127;47.908;10.850;2023-01-28T07:36:14;26.20;;;18.57;;
8171;SDS011;4127;47.908;10.850;2023-01-28T07:38:41;28.10;;;19.10;;
8171;SDS011;4127;47.908;10.850;2023-01-28T07:48:59;29.40;;;18.33;;
8171;SDS011;4127;47.908;10.850;2023-01-28T07:54:08;25.33;;;17.43;;
8171;SDS011;4127;47.908;10.850;2023-01-28T08:34:39;23.50;;;16.23;;
8171;SDS011;4127;47.908;10.850;2023-01-28T08:50:29;22.43;;;16.50;;
8171;SDS011;4127;47.908;10.850;2023-01-28T08:55:33;24.40;;;16.10;;
8171;SDS011;4127;47.908;10.850;2023-01-28T09:13:42;24.40;;;16.93;;
8171;SDS011;4127;47.908;10.850;2023-01-28T09:16:09;21.70;;;15.77;;
8171;SDS011;4127;47.908;10.850;2023-01-28T09:21:14;21.67;;;15.37;;
8171;SDS011;4127;47.908;10.850;2023-01-28T09:23:41;21.50;;;15.70;;
8171;SDS011;4127;47.908;10.850;2023-01-28T09:28:34;21.03;;;14.73;;
8171;SDS011;4127;47.908;10.850;2023-01-28T09:36:09;23.97;;;16.00;;
8171;SDS011;4127;47.908;10.850;2023-01-28T09:48:52;17.77;;;13.97;;
8171;SDS011;4127;47.908;10.850;2023-01-28T10:20:43;15.07;;;12.30;;
8171;SDS011;4127;47.908;10.850;2023-01-28T10:23:38;14.53;;;11.77;;
8171;SDS011;4127;47.908;10.850;2023-01-28T10:26:15;14.03;;;11.17;;
8171;SDS011;4127;47.908;10.850;2023-01-28T10:29:02;13.60;;;11.57;;
8171;SDS011;4127;47.908;10.850;2023-01-28T10:31:38;14.20;;;10.93;;
8171;SDS011;4127;47.908;10.850;2023-01-28T10:44:41;12.93;;;10.40;;
8171;SDS011;4127;47.908;10.850;2023-01-28T10:49:43;11.93;;;9.37;;
8171;SDS011;4127;47.908;10.850;2023-01-28T10:52:14;12.30;;;9.57;;
8171;SDS011;4127;47.908;10.850;2023-01-28T10:54:41;11.07;;;8.53;;
8171;SDS011;4127;47.908;10.850;2023-01-28T10:57:12;12.67;;;9.23;;
8171;SDS011;4127;47.908;10.850;2023-01-28T10:59:41;11.50;;;9.77;;
8171;SDS011;4127;47.908;10.850;2023-01-28T11:02:25;12.63;;;10.30;;
8171;SDS011;4127;47.908;10.850;2023-01-28T11:10:24;11.83;;;9.60;;
8171;SDS011;4127;47.908;10.850;2023-01-28T11:18:14;15.17;;;10.30;;
8171;SDS011;4127;47.908;10.850;2023-01-28T11:20:54;14.73;;;11.17;;
8171;SDS011;4127;47.908;10.850;2023-01-28T11:23:27;12.53;;;10.13;;
8171;SDS011;4127;47.908;10.850;2023-01-28T11:26:03;11.83;;;10.00;;
8171;SDS011;4127;47.908;10.850;2023-01-28T11:39:44;11.93;;;9.13;;
8171;SDS011;4127;47.908;10.850;2023-01-28T12:21:28;12.83;;;9.67;;
8171;SDS011;4127;47.908;10.850;2023-01-28T12:27:45;13.27;;;10.93;;
8171;SDS011;4127;47.908;10.850;2023-01-28T12:38:43;12.33;;;9.93;;
8171;SDS011;4127;47.908;10.850;2023-01-28T12:41:41;14.70;;;10.50;;
8171;SDS011;4127;47.908;10.850;2023-01-28T12:44:14;13.83;;;10.80;;
8171;SDS011;4127;47.908;10.850;2023-01-28T12:46:53;13.83;;;11.23;;
8171;SDS011;4127;47.908;10.850;2023-01-28T12:49:27;15.87;;;12.77;;
8171;SDS011;4127;47.908;10.850;2023-01-28T12:52:13;16.17;;;13.20;;
8171;SDS011;4127;47.908;10.850;2023-01-28T12:57:21;14.37;;;12.87;;
8171;SDS011;4127;47.908;10.850;2023-01-28T13:02:49;21.23;;;16.30;;
8171;SDS011;4127;47.908;10.850;2023-01-28T13:05:25;18.30;;;14.00;;
8171;SDS011;4127;47.908;10.850;2023-01-28T13:08:10;16.60;;;13.17;;
8171;SDS011;4127;47.908;10.850;2023-01-28T13:10:46;19.10;;;14.90;;
8171;SDS011;4127;47.908;10.850;2023-01-28T13:13:28;21.63;;;15.13;;
8171;SDS011;4127;47.908;10.850;2023-01-28T13:16:01;17.10;;;13.00;;
8171;SDS011;4127;47.908;10.850;2023-01-28T13:21:05;15.03;;;12.80;;
8171;SDS011;4127;47.908;10.850;2023-01-28T13:29:21;16.33;;;;;
8171;SDS011;4127;47.908;10.850;2023-01-28T13:31:56;14.60;;;12.80;;
8171;SDS011;4127;47.908;10.850;2023-01-28T13:37:00;16.97;;;12.87;;
8171;SDS011;4127;47.908;10.850;2023-01-28T13:39:44;17.10;;;14.03;;
8171;SDS011;4127;47.908;10.850;2023-01-28T13:44:53;20.57;;;15.93;;
8171;SDS011;4127;47.908;10.850;2023-01-28T13:47:32;21.60;;;15.70;;
8171;SDS011;4127;47.908;10.850;2023-01-28T13:50:02;18.00;;;13.70;;
8171;SDS011;4127;47.908;10.850;2023-01-28T13:52:36;17.80;;;13.40;;
8171;SDS011;4127;47.908;10.850;2023-01-28T13:55:26;20.67;;;15.67;;
8171;SDS011;4127;47.908;10.850;2023-01-28T13:58:16;22.60;;;15.37;;
8171;SDS011;4127;47.908;10.850;2023-01-28T14:17:46;19.17;;;14.33;;
8171;SDS011;4127;47.908;10.850;2023-01-28T14:23:03;17.77;;;14.63;;
8171;SDS011;4127;47.908;10.850;2023-01-28T14:28:06;21.53;;;14.07;;
8171;SDS011;4127;47.908;10.850;2023-01-28T14:33:12;23.93;;;15.13;;
8171;SDS011;4127;47.908;10.850;2023-01-28T14:35:43;19.40;;;13.93;;
8171;SDS011;4127;47.908;10.850;2023-01-28T14:38:13;21.13;;;14.90;;
8171;SDS011;4127;47.908;10.850;2023-01-28T14:40:43;19.03;;;13.67;;
8171;SDS011;4127;47.908;10.850;2023-01-28T14:43:15;22.33;;;14.73;;
8171;SDS011;4127;47.908;10.850;2023-01-28T14:54:24;16.77;;;12.43;;
8171;SDS011;4127;47.908;10.850;2023-01-28T14:59:53;16.93;;;12.53;;
8171;SDS011;4127;47.908;10.850;2023-01-28T15:02:24;15.40;;;11.47;;
8171;SDS011;4127;47.908;10.850;2023-01-28T15:04:52;14.63;;;11.60;;
8171;SDS011;4127;47.908;10.850;2023-01-28T15:07:23;16.07;;;12.67;;
8171;SDS011;4127;47.908;10.850;2023-01-28T15:10:05;14.83;;;12.23;;
8171;SDS011;4127;47.908;10.850;2023-01-28T15:12:40;17.30;;;13.17;;
8171;SDS011;4127;47.908;10.850;2023-01-28T15:15:29;16.03;;;12.77;;
8171;SDS011;4127;47.908;10.850;2023-01-28T15:18:24;17.27;;;13.80;;
8171;SDS011;4127;47.908;10.850;2023-01-28T15:20:55;15.40;;;12.33;;
8171;SDS011;4127;47.908;10.850;2023-01-28T15:23:25;16.73;;;13.33;;
8171;SDS011;4127;47.908;10.850;2023-01-28T15:25:54;16.67;;;12.60;;
8171;SDS011;4127;47.908;10.850;2023-01-28T15:28:31;15.13;;;12.00;;
8171;SDS011;4127;47.908;10.850;2023-01-28T15:31:02;16.27;;;12.63;;
8171;SDS011;4127;47.908;10.850;2023-01-28T15:33:29;14.37;;;11.70;;
8171;SDS011;4127;47.908;10.850;2023-01-28T15:35:57;18.30;;;13.90;;
8171;SDS011;4127;47.908;10.850;2023-01-28T15:38:25;16.63;;;13.53;;
8171;SDS011;4127;47.908;10.850;2023-01-28T15:41:00;15.07;;;11.93;;
8171;SDS011;4127;47.908;10.850;2023-01-28T15:43:29;14.53;;;11.57;;
8171;SDS011;4127;47.908;10.850;2023-01-28T15:46:01;14.33;;;12.30;;
8171;SDS011;4127;47.908;10.850;2023-01-28T15:48:30;15.47;;;12.63;;
8171;SDS011;4127;47.908;10.850;2023-01-28T15:51:00;16.80;;;12.43;;
8171;SDS011;4127;47.908;10.850;2023-01-28T15:56:24;15.57;;;12.40;;
8171;SDS011;4127;47.908;10.850;2023-01-28T15:58:53;16.37;;;13.47;;
8171;SDS011;4127;47.908;10.850;2023-01-28T16:01:21;16.30;;;12.13;;
8171;SDS011;4127;47.908;10.850;2023-01-28T16:03:59;15.40;;;12.20;;
8171;SDS011;4127;47.908;10.850;2023-01-28T16:06:31;15.53;;;11.83;;
8171;SDS011;4127;47.908;10.850;2023-01-28T16:09:02;14.07;;;12.13;;
8171;SDS011;4127;47.908;10.850;2023-01-28T16:11:32;16.27;;;13.10;;
8171;SDS011;4127;47.908;10.850;2023-01-28T16:14:24;18.07;;;13.73;;
8171;SDS011;4127;47.908;10.850;2023-01-28T16:16:54;17.07;;;12.97;;
8171;SDS011;4127;47.908;10.850;2023-01-28T16:19:43;16.83;;;13.10;;
8171;SDS011;4127;47.908;10.850;2023-01-28T16:22:47;20.63;;;14.50;;
8171;SDS011;4127;47.908;10.850;2023-01-28T16:28:16;20.10;;;14.43;;
8171;SDS011;4127;47.908;10.850;2023-01-28T16:30:45;15.60;;;12.80;;
8171;SDS011;4127;47.908;10.850;2023-01-28T16:33:18;15.60;;;12.80;;
8171;SDS011;4127;47.908;10.850;2023-01-28T16:35:47;17.90;;;13.30;;
8171;SDS011;4127;47.908;10.850;2023-01-28T16:38:33;17.13;;;12.90;;
8171;SDS011;4127;47.908;10.850;2023-01-28T16:41:00;17.07;;;13.07;;
8171;SDS011;4127;47.908;10.850;2023-01-28T16:43:26;16.33;;;13.20;;
8171;SDS011;4127;47.908;10.850;2023-01-28T16:45:53;17.67;;;13.73;;
8171;SDS011;4127;47.908;10.850;2023-01-28T16:48:20;17.77;;;13.57;;
8171;SDS011;4127;47.908;10.850;2023-01-28T16:50:47;17.57;;;14.00;;
8171;SDS011;4127;47.908;10.850;2023-01-28T16:53:19;17.07;;;13.70;;
8171;SDS011;4127;47.908;10.850;2023-01-28T16:55:51;14.63;;;12.43;;
8171;SDS011;4127;47.908;10.850;2023-01-28T16:58:19;17.97;;;13.57;;
8171;SDS011;4127;47.908;10.850;2023-01-28T17:00:50;21.47;;;14.10;;
8171;SDS011;4127;47.908;10.850;2023-01-28T17:03:18;17.73;;;13.40;;
8171;SDS011;4127;47.908;10.850;2023-01-28T17:05:45;18.20;;;13.93;;
8171;SDS011;4127;47.908;10.850;2023-01-28T17:08:12;17.00;;;14.17;;
8171;SDS011;4127;47.908;10.850;2023-01-28T17:10:38;17.57;;;13.57;;
8171;SDS011;4127;47.908;10.850;2023-01-28T17:13:05;18.63;;;14.07;;
8171;SDS011;4127;47.908;10.850;2023-01-28T17:15:33;19.00;;;14.33;;
8171;SDS011;4127;47.908;10.850;2023-01-28T17:18:01;20.93;;;15.10;;
8171;SDS011;4127;47.908;10.850;2023-01-28T17:20:27;21.53;;;16.00;;
8171;SDS011;4127;47.908;10.850;2023-01-28T17:22:55;19.13;;;14.30;;
8171;SDS011;4127;47.908;10.850;2023-01-28T17:25:22;16.57;;;13.93;;
8171;SDS011;4127;47.908;10.850;2023-01-28T17:27:49;18.70;;;13.23;;
8171;SDS011;4127;47.908;10.850;2023-01-28T17:30:18;17.67;;;13.30;;
8171;SDS011;4127;47.908;10.850;2023-01-28T17:32:45;17.87;;;13.13;;
8171;SDS011;4127;47.908;10.850;2023-01-28T17:35:12;17.63;;;12.57;;
8171;SDS011;4127;47.908;10.850;2023-01-28T17:37:41;17.13;;;13.60;;
8171;SDS011;4127;47.908;10.850;2023-01-28T17:40:08;16.17;;;13.10;;
8171;SDS011;4127;47.908;10.850;2023-01-28T17:42:37;16.70;;;12.90;;
8171;SDS011;4127;47.908;10.850;2023-01-28T17:45:04;16.53;;;12.93;;
8171;SDS011;4127;47.908;10.850;2023-01-28T17:47:31;20.47;;;15.60;;
8171;SDS011;4127;47.908;10.850;2023-01-28T17:49:58;19.10;;;13.87;;
8171;SDS011;4127;47.908;10.850;2023-01-28T17:52:25;17.40;;;13.30;;
8171;SDS011;4127;47.908;10.850;2023-01-28T17:54:51;17.10;;;13.10;;
8171;SDS011;4127;47.908;10.850;2023-01-28T17:57:18;17.00;;;13.17;;
8171;SDS011;4127;47.908;10.850;2023-01-28T17:59:45;17.60;;;13.07;;
8171;SDS011;4127;47.908;10.850;2023-01-28T18:02:12;16.60;;;13.73;;
8171;SDS011;4127;47.908;10.850;2023-01-28T18:04:40;17.93;;;13.70;;
8171;SDS011;4127;47.908;10.850;2023-01-28T18:07:08;19.17;;;13.80;;
8171;SDS011;4127;47.908;10.850;2023-01-28T18:09:37;17.10;;;13.50;;
8171;SDS011;4127;47.908;10.850;2023-01-28T18:12:05;18.23;;;14.03;;
8171;SDS011;4127;47.908;10.850;2023-01-28T18:14:33;19.07;;;13.50;;
8171;SDS011;4127;47.908;10.850;2023-01-28T18:17:00;20.23;;;14.43;;
8171;SDS011;4127;47.908;10.850;2023-01-28T18:19:27;17.23;;;13.07;;
8171;SDS011;4127;47.908;10.850;2023-01-28T18:21:54;18.17;;;13.93;;
8171;SDS011;4127;47.908;10.850;2023-01-28T18:24:21;18.33;;;14.00;;
8171;SDS011;4127;47.908;10.850;2023-01-28T18:26:50;19.70;;;14.83;;
8171;SDS011;4127;47.908;10.850;2023-01-28T18:29:20;17.30;;;13.40;;
8171;SDS011;4127;47.908;10.850;2023-01-28T18:31:52;19.90;;;14.97;;
8171;SDS011;4127;47.908;10.850;2023-01-28T18:34:24;20.70;;;15.10;;
8171;SDS011;4127;47.908;10.850;2023-01-28T18:36:52;20.47;;;15.47;;
8171;SDS011;4127;47.908;10.850;2023-01-28T18:39:19;19.83;;;15.33;;
8171;SDS011;4127;47.908;10.850;2023-01-28T18:41:46;19.60;;;14.63;;
8171;SDS011;4127;47.908;10.850;2023-01-28T18:44:13;19.23;;;14.77;;
8171;SDS011;4127;47.908;10.850;2023-01-28T18:46:40;17.33;;;13.90;;
8171;SDS011;4127;47.908;10.850;2023-01-28T18:49:07;18.67;;;14.20;;
8171;SDS011;4127;47.908;10.850;2023-01-28T18:51:34;18.87;;;14.07;;
8171;SDS011;4127;47.908;10.850;2023-01-28T18:54:02;18.13;;;15.17;;
8171;SDS011;4127;47.908;10.850;2023-01-28T18:56:30;17.73;;;13.73;;
8171;SDS011;4127;47.908;10.850;2023-01-28T18:58:58;18.10;;;14.00;;
8171;SDS011;4127;47.908;10.850;2023-01-28T19:01:27;17.40;;;13.50;;
8171;SDS011;4127;47.908;10.850;2023-01-28T19:03:55;19.43;;;14.53;;
8171;SDS011;4127;47.908;10.850;2023-01-28T19:06:24;19.33;;;14.83;;
8171;SDS011;4127;47.908;10.850;2023-01-28T19:08:56;19.73;;;14.73;;
8171;SDS011;4127;47.908;10.850;2023-01-28T19:11:25;19.47;;;14.77;;
8171;SDS011;4127;47.908;10.850;2023-01-28T19:13:53;20.53;;;15.17;;
8171;SDS011;4127;47.908;10.850;2023-01-28T19:16:20;18.90;;;14.63;;
8171;SDS011;4127;47.908;10.850;2023-01-28T19:18:54;18.90;;;14.27;;
8171;SDS011;4127;47.908;10.850;2023-01-28T19:21:23;14.27;;;11.90;;
8171;SDS011;4127;47.908;10.850;2023-01-28T19:23:55;17.07;;;12.53;;
8171;SDS011;4127;47.908;10.850;2023-01-28T19:26:24;16.77;;;13.40;;
8171;SDS011;4127;47.908;10.850;2023-01-28T19:28:51;15.27;;;12.67;;
8171;SDS011;4127;47.908;10.850;2023-01-28T19:31:19;15.37;;;12.70;;
8171;SDS011;4127;47.908;10.850;2023-01-28T19:33:46;17.50;;;12.90;;
8171;SDS011;4127;47.908;10.850;2023-01-28T19:36:14;14.47;;;11.30;;
8171;SDS011;4127;47.908;10.850;2023-01-28T19:38:41;17.50;;;12.77;;
8171;SDS011;4127;47.908;10.850;2023-01-28T19:41:08;18.20;;;14.27;;
8171;SDS011;4127;47.908;10.850;2023-01-28T19:43:35;16.50;;;12.60;;
8171;SDS011;4127;47.908;10.850;2023-01-28T19:46:02;16.53;;;12.50;;
8171;SDS011;4127;47.908;10.850;2023-01-28T19:48:31;15.87;;;12.03;;
8171;SDS011;4127;47.908;10.850;2023-01-28T19:51:05;16.00;;;12.20;;
8171;SDS011;4127;47.908;10.850;2023-01-28T19:53:36;18.00;;;12.90;;
8171;SDS011;4127;47.908;10.850;2023-01-28T19:56:05;16.80;;;13.10;;
8171;SDS011;4127;47.908;10.850;2023-01-28T19:58:38;17.63;;;13.30;;
8171;SDS011;4127;47.908;10.850;2023-01-28T20:01:10;17.47;;;13.17;;
8171;SDS011;4127;47.908;10.850;2023-01-28T20:03:41;18.93;;;14.17;;
8171;SDS011;4127;47.908;10.850;2023-01-28T20:06:13;20.00;;;15.20;;
8171;SDS011;4127;47.908;10.850;2023-01-28T20:08:41;21.40;;;15.17;;
8171;SDS011;4127;47.908;10.850;2023-01-28T20:11:09;19.00;;;14.30;;
8171;SDS011;4127;47.908;10.850;2023-01-28T20:13:42;17.13;;;13.63;;
8171;SDS011;4127;47.908;10.850;2023-01-28T20:16:12;18.50;;;13.90;;
8171;SDS011;4127;47.908;10.850;2023-01-28T20:18:48;17.27;;;13.37;;